»·PEaware :: N373EB KMAE-KWHP

N373EB :: KMAE-KWHP

FLIGHT INFORMATION

Flight Status: Arrived
Operator: Privately registered:
United States
More flights under this callsign
Pilot: Peder R. (40111)
Aircraft: BEECH AIRCRAFT DEBONAIR BONANZA
(BE33)
More flights by this aircraft type
Origin: KMAE Madera Mun
United States
Destination: KWHP Whiteman
United States
More flights between these airports :: More routes between these airports
Route: FRAME V23 EHF T259 LHS NODUQ
File this flight plan on PilotEdge
Remarks:
Altitude:
(Current/Filed)
9,000ft
Speed:
(Current/Filed)
155kts
Departed: 28-Aug-23 09:03 AM
Arrived: 28-Aug-23 10:23 AM
Distance/Time
Traveled:
183nm/1:20
Distance/Time
To Go:
Arrived

Flight Plot

Page will automatically refresh every two minutes.

Flight plan parsing failed; only flown route is shown


Map Options




Map Legend


Flown Route
Filed Route
Departure Airport
Arrival Airport
Navaid (VOR, NDB)
Fix

Horizontal Profiles

Position Reports

Time Latitude Longitude Heading Altitude Ground
Speed
28-Aug-23 08:50 36.988488 -120.109491 225 253ft 0kts
28-Aug-23 08:51 36.988488 -120.109491 225 253ft 0kts
28-Aug-23 08:52 36.988488 -120.109491 225 253ft 0kts
28-Aug-23 08:53 36.988488 -120.109491 225 253ft 0kts
28-Aug-23 08:54 36.988488 -120.109491 225 253ft 0kts
28-Aug-23 08:55 36.988488 -120.109491 225 253ft 0kts
28-Aug-23 08:56 36.987403 -120.108534 136 253ft 10kts
28-Aug-23 08:57 36.985222 -120.105816 135 254ft 12kts
28-Aug-23 08:58 36.984080 -120.104531 271 256ft 0kts
28-Aug-23 08:59 36.984080 -120.104531 271 256ft 0kts
28-Aug-23 09:00 36.984080 -120.104531 271 256ft 0kts
28-Aug-23 09:01 36.984080 -120.104531 271 256ft 0kts
28-Aug-23 09:02 36.983577 -120.105408 225 255ft 6kts
28-Aug-23 09:03 36.992169 -120.116098 315 459ft 94kts
28-Aug-23 09:04 37.012764 -120.116690 74 1530ft 106kts
28-Aug-23 09:05 36.997862 -120.085838 124 2461ft 113kts
28-Aug-23 09:06 36.976179 -120.057474 147 3254ft 117kts
28-Aug-23 09:07 36.950381 -120.034467 135 4082ft 115kts
28-Aug-23 09:08 36.925833 -120.007959 137 4875ft 119kts
28-Aug-23 09:09 36.901112 -119.980450 134 5664ft 120kts
28-Aug-23 09:09 36.880187 -119.957940 137 6294ft 119kts
28-Aug-23 09:10 36.854975 -119.931505 135 6981ft 120kts
28-Aug-23 09:12 36.825220 -119.899532 134 7717ft 120kts
28-Aug-23 09:13 36.799979 -119.871522 136 8294ft 121kts
28-Aug-23 09:13 36.778220 -119.848965 135 8743ft 121kts
28-Aug-23 09:14 36.751262 -119.819669 135 8968ft 140kts
28-Aug-23 09:15 36.719721 -119.786216 136 8992ft 154kts
28-Aug-23 09:16 36.686441 -119.750480 135 8933ft 160kts
28-Aug-23 09:18 36.646666 -119.709166 137 8955ft 153kts
28-Aug-23 09:18 36.620052 -119.679389 139 8969ft 154kts
28-Aug-23 09:19 36.580592 -119.658883 154 9022ft 154kts
28-Aug-23 09:20 36.540744 -119.638071 154 9039ft 156kts
28-Aug-23 09:21 36.500571 -119.616840 152 9031ft 156kts
28-Aug-23 09:22 36.460459 -119.595265 153 9015ft 157kts
28-Aug-23 09:23 36.419904 -119.574920 153 9017ft 157kts
28-Aug-23 09:24 36.379234 -119.554574 157 9015ft 158kts
28-Aug-23 09:25 36.339112 -119.533179 152 9014ft 157kts
28-Aug-23 09:26 36.298794 -119.511796 154 9017ft 157kts
28-Aug-23 09:27 36.258105 -119.490289 153 9023ft 157kts
28-Aug-23 09:28 36.217639 -119.469133 156 9031ft 157kts
28-Aug-23 09:29 36.176709 -119.449512 153 9013ft 157kts
28-Aug-23 09:30 36.135568 -119.428463 153 8993ft 158kts
28-Aug-23 09:31 36.094932 -119.406232 154 8979ft 158kts
28-Aug-23 09:32 36.054338 -119.386232 157 9025ft 152kts
28-Aug-23 09:33 36.014865 -119.366343 157 8990ft 153kts
28-Aug-23 09:34 35.975559 -119.346350 157 8982ft 151kts
28-Aug-23 09:35 35.936571 -119.326346 157 9013ft 150kts
28-Aug-23 09:36 35.897363 -119.306940 152 9025ft 150kts
28-Aug-23 09:37 35.858681 -119.286644 157 9053ft 151kts
28-Aug-23 09:38 35.819512 -119.266813 157 9035ft 152kts
28-Aug-23 09:39 35.779641 -119.246767 156 9038ft 152kts
28-Aug-23 09:40 35.739947 -119.226890 157 9033ft 152kts
28-Aug-23 09:41 35.700451 -119.206367 156 9033ft 152kts
28-Aug-23 09:42 35.660773 -119.185947 156 9032ft 152kts
28-Aug-23 09:43 35.621738 -119.165346 158 9006ft 153kts
28-Aug-23 09:44 35.581903 -119.146475 158 8999ft 153kts
28-Aug-23 09:45 35.541270 -119.127416 155 9000ft 157kts
28-Aug-23 09:46 35.500613 -119.106946 155 8999ft 157kts
28-Aug-23 09:47 35.461131 -119.083147 149 8999ft 156kts
28-Aug-23 09:48 35.422781 -119.057537 149 8999ft 156kts
28-Aug-23 09:49 35.383934 -119.032620 149 8999ft 156kts
28-Aug-23 09:50 35.345633 -119.007560 150 9005ft 156kts
28-Aug-23 09:51 35.306772 -118.982602 148 9008ft 156kts
28-Aug-23 09:52 35.268387 -118.957151 149 9010ft 157kts
28-Aug-23 09:53 35.229760 -118.931955 149 9012ft 157kts
28-Aug-23 09:54 35.190683 -118.907060 149 9016ft 158kts
28-Aug-23 09:55 35.151681 -118.882176 148 9038ft 158kts
28-Aug-23 09:56 35.113157 -118.855826 145 9082ft 157kts
28-Aug-23 09:57 35.074656 -118.829599 147 9142ft 158kts
28-Aug-23 09:58 35.035550 -118.804364 148 9202ft 159kts
28-Aug-23 09:59 34.995872 -118.779274 149 9203ft 162kts
28-Aug-23 10:00 34.955550 -118.754513 147 9188ft 160kts
28-Aug-23 10:01 34.915520 -118.729771 147 9159ft 159kts
28-Aug-23 10:02 34.876802 -118.704290 145 9159ft 156kts
28-Aug-23 10:03 34.838684 -118.678086 148 9133ft 156kts
28-Aug-23 10:04 34.799847 -118.654488 145 9163ft 152kts
28-Aug-23 10:05 34.762267 -118.628972 145 9163ft 153kts
28-Aug-23 10:06 34.723744 -118.604789 148 9131ft 155kts
28-Aug-23 10:07 34.684726 -118.581383 163 9026ft 163kts
28-Aug-23 10:08 34.638697 -118.584834 184 8484ft 173kts
28-Aug-23 10:09 34.591319 -118.592125 184 7510ft 169kts
28-Aug-23 10:10 34.544271 -118.601547 186 6509ft 170kts
28-Aug-23 10:11 34.497609 -118.610021 190 5596ft 167kts
28-Aug-23 10:12 34.452766 -118.619527 189 4983ft 148kts
28-Aug-23 10:13 34.416967 -118.627175 188 4980ft 120kts
28-Aug-23 10:14 34.384052 -118.628580 142 4896ft 119kts
28-Aug-23 10:15 34.363257 -118.599276 119 4700ft 113kts
28-Aug-23 10:16 34.346208 -118.568126 118 4679ft 110kts
28-Aug-23 10:17 34.329718 -118.537375 119 4201ft 108kts
28-Aug-23 10:18 34.313491 -118.506758 116 3592ft 107kts
28-Aug-23 10:19 34.308040 -118.471979 95 2915ft 106kts
28-Aug-23 10:20 34.289633 -118.445620 136 2080ft 91kts
28-Aug-23 10:21 34.271579 -118.426416 136 1373ft 78kts
28-Aug-23 10:22 34.258759 -118.412899 135 989ft 5kts
28-Aug-23 10:23 34.258094 -118.411519 320 983ft 3kts
28-Aug-23 10:24 34.259622 -118.412838 50 992ft 3kts
28-Aug-23 10:25 34.259992 -118.412690 320 994ft 0kts

Navigation Log

Ident Type
Flight plan parsing failed, navigation log unavailable